createdAt,value
2019-03-21T00:01:52.838Z,11.30
2019-03-21T00:04:33.483Z,11.20
2019-03-21T00:07:02.123Z,11.40
2019-03-21T00:10:09.360Z,11.40
2019-03-21T00:18:40.229Z,11.50
2019-03-21T00:21:08.687Z,11.40
2019-03-21T00:23:56.510Z,11.40
2019-03-21T00:26:38.143Z,11.30
2019-03-21T00:29:06.769Z,11.40
2019-03-21T00:31:35.264Z,11.40
2019-03-21T00:34:23.101Z,11.30
2019-03-21T00:37:04.148Z,11.20
2019-03-21T00:39:44.785Z,11.30
2019-03-21T00:42:13.357Z,11.30
2019-03-21T00:45:01.181Z,11.30
2019-03-21T00:47:43.690Z,11.40
2019-03-21T00:50:24.270Z,11.40
2019-03-21T00:53:05.019Z,11.30
2019-03-21T00:55:45.754Z,11.30
2019-03-21T00:58:26.478Z,11.40
2019-03-21T01:01:07.371Z,11.40
2019-03-21T01:03:48.140Z,11.20
2019-03-21T01:06:29.149Z,11.30
2019-03-21T01:09:10.236Z,11.40
2019-03-21T01:11:50.858Z,11.30
2019-03-21T01:14:31.440Z,11.20
2019-03-21T01:17:12.309Z,11.20
2019-03-21T01:19:52.786Z,11.40
2019-03-21T01:22:34.925Z,11.50
2019-03-21T01:25:15.262Z,11.40
2019-03-21T01:27:55.807Z,11.10
2019-03-21T01:30:38.197Z,11.10
2019-03-21T01:33:19.339Z,11.10
2019-03-21T01:36:00.320Z,11.10
2019-03-21T01:38:40.642Z,11.10
2019-03-21T01:47:03.901Z,10.90
2019-03-21T01:52:36.877Z,10.70
2019-03-21T01:55:17.143Z,10.80
2019-03-21T01:57:59.308Z,10.70
2019-03-21T02:00:41.381Z,10.70
2019-03-21T02:03:22.253Z,10.70
2019-03-21T02:06:03.105Z,10.60
2019-03-21T02:08:44.608Z,10.50
2019-03-21T02:11:25.350Z,10.50
2019-03-21T02:14:06.892Z,10.50
2019-03-21T02:16:47.338Z,10.50
2019-03-21T02:19:28.420Z,10.50
2019-03-21T02:22:09.388Z,10.50
2019-03-21T02:24:54.511Z,10.40
2019-03-21T02:27:36.371Z,10.30
2019-03-21T02:30:18.536Z,10.30
2019-03-21T02:32:59.644Z,10.40
2019-03-21T02:35:41.276Z,10.40
2019-03-21T02:38:22.534Z,10.40
2019-03-21T02:41:04.239Z,10.40
2019-03-21T02:43:45.500Z,10.20
2019-03-21T02:46:26.409Z,10.20
2019-03-21T02:52:05.104Z,10.20
2019-03-21T02:54:45.757Z,10.20
2019-03-21T02:57:26.809Z,10.20
2019-03-21T03:00:07.910Z,10.20
2019-03-21T03:02:48.608Z,10.00
2019-03-21T03:05:29.504Z,10.00
2019-03-21T03:07:58.438Z,10.00
2019-03-21T03:11:05.892Z,10.00
2019-03-21T03:13:54.034Z,9.90
2019-03-21T03:16:35.352Z,9.90
2019-03-21T03:19:17.258Z,9.90
2019-03-21T03:21:58.578Z,9.80
2019-03-21T03:24:39.405Z,9.80
2019-03-21T03:27:20.498Z,9.80
2019-03-21T03:30:01.302Z,9.70
2019-03-21T03:32:42.590Z,9.60
2019-03-21T03:35:23.478Z,9.60
2019-03-21T03:38:04.040Z,9.60
2019-03-21T03:40:46.095Z,9.60
2019-03-21T03:43:27.022Z,9.60
2019-03-21T03:46:08.688Z,9.50
2019-03-21T03:48:49.303Z,9.40
2019-03-21T03:51:17.855Z,9.40
2019-03-21T03:54:06.292Z,9.30
2019-03-21T03:56:46.927Z,9.30
2019-03-21T03:59:27.685Z,9.20
2019-03-21T04:02:09.038Z,9.20
2019-03-21T04:04:49.881Z,9.20
2019-03-21T04:07:30.812Z,9.10
2019-03-21T04:10:11.732Z,9.00
2019-03-21T04:12:52.528Z,9.10
2019-03-21T04:15:33.247Z,9.10
2019-03-21T04:18:14.305Z,8.90
2019-03-21T04:20:56.416Z,8.80
2019-03-21T04:29:18.439Z,8.60
2019-03-21T04:31:58.965Z,8.60
2019-03-21T04:34:39.685Z,8.50
2019-03-21T04:37:20.794Z,8.50
2019-03-21T04:40:01.604Z,8.50
2019-03-21T04:42:42.639Z,8.50
2019-03-21T04:45:23.263Z,8.50
2019-03-21T04:48:04.086Z,8.40
2019-03-21T04:50:45.082Z,8.50
2019-03-21T04:53:25.601Z,8.50
2019-03-21T04:56:05.982Z,8.60
2019-03-21T04:58:46.860Z,8.40
2019-03-21T05:01:27.920Z,8.40
2019-03-21T05:04:08.528Z,8.60
2019-03-21T05:06:49.389Z,8.40
2019-03-21T05:09:30.185Z,8.10
2019-03-21T05:12:11.134Z,8.10
2019-03-21T05:14:51.622Z,8.20
2019-03-21T05:17:32.325Z,8.30
2019-03-21T05:20:14.363Z,8.30
2019-03-21T05:22:55.428Z,8.20
2019-03-21T05:25:36.056Z,8.20
2019-03-21T05:28:16.933Z,8.20
2019-03-21T05:31:06.318Z,8.30
2019-03-21T05:33:34.809Z,8.30
2019-03-21T05:36:22.649Z,8.30
2019-03-21T05:39:11.025Z,8.30
2019-03-21T05:41:51.967Z,8.40
2019-03-21T05:44:41.127Z,8.30
2019-03-21T05:47:09.633Z,8.30
2019-03-21T05:49:38.192Z,8.30
2019-03-21T05:52:26.072Z,8.30
2019-03-21T06:03:46.985Z,8.20
2019-03-21T06:06:54.121Z,8.20
2019-03-21T06:10:02.666Z,8.20
2019-03-21T06:12:43.886Z,8.20
2019-03-21T06:18:34.294Z,8.00
2019-03-21T06:24:29.173Z,8.00
2019-03-21T06:27:14.559Z,7.90
2019-03-21T06:29:52.863Z,7.90
2019-03-21T06:32:21.393Z,7.90
2019-03-21T06:35:29.928Z,8.00
2019-03-21T06:38:17.793Z,8.00
2019-03-21T06:40:58.563Z,8.00
2019-03-21T06:43:39.836Z,8.00
2019-03-21T06:46:23.919Z,8.10
2019-03-21T06:49:04.340Z,8.20
2019-03-21T06:54:59.770Z,8.30
2019-03-21T06:57:40.245Z,8.50
2019-03-21T07:00:20.791Z,8.60
2019-03-21T07:06:03.747Z,8.50
2019-03-21T07:08:44.184Z,8.50
2019-03-21T07:11:13.236Z,8.60
2019-03-21T07:14:02.845Z,8.40
2019-03-21T07:16:44.029Z,8.80
2019-03-21T07:19:25.052Z,9.00
2019-03-21T07:22:05.431Z,9.20
2019-03-21T07:24:33.893Z,9.30
2019-03-21T07:27:21.738Z,9.30
2019-03-21T07:30:29.346Z,9.40
2019-03-21T07:33:11.035Z,9.20
2019-03-21T07:38:21.836Z,8.70
2019-03-21T07:41:09.773Z,9.00
2019-03-21T07:43:50.339Z,9.20
2019-03-21T07:46:32.097Z,9.10
2019-03-21T07:49:12.811Z,9.30
2019-03-21T07:51:41.432Z,9.30
2019-03-21T07:54:29.295Z,9.50
2019-03-21T07:56:58.419Z,9.60
2019-03-21T07:59:46.312Z,9.70
2019-03-21T08:02:27.441Z,9.80
2019-03-21T08:05:08.215Z,10.30
2019-03-21T08:07:49.110Z,10.40
2019-03-21T08:10:17.696Z,10.20
2019-03-21T08:12:46.161Z,10.50
2019-03-21T08:15:37.843Z,11.20
2019-03-21T08:18:06.797Z,11.70
2019-03-21T08:21:13.789Z,11.50
2019-03-21T08:23:55.165Z,12.10
2019-03-21T08:26:36.129Z,12.10
2019-03-21T08:29:17.517Z,12.60
2019-03-21T08:31:58.013Z,12.30
2019-03-21T08:34:38.572Z,11.40
2019-03-21T08:37:19.245Z,11.10
2019-03-21T08:39:47.803Z,10.70
2019-03-21T08:42:35.817Z,10.80
2019-03-21T08:45:23.652Z,11.10
2019-03-21T08:48:04.860Z,11.00
2019-03-21T08:50:45.601Z,11.00
2019-03-21T08:53:26.305Z,11.40
2019-03-21T08:56:06.951Z,11.40
2019-03-21T08:58:47.874Z,11.40
2019-03-21T09:01:16.343Z,11.40
2019-03-21T09:04:04.438Z,10.80
2019-03-21T09:06:45.471Z,11.10
2019-03-21T09:09:24.673Z,11.70
2019-03-21T09:12:12.605Z,12.30
2019-03-21T09:14:54.627Z,12.20
2019-03-21T09:17:35.313Z,12.40
2019-03-21T09:20:24.746Z,12.70
2019-03-21T09:23:12.938Z,13.10
2019-03-21T09:25:54.009Z,13.30
2019-03-21T09:28:23.213Z,13.20
2019-03-21T09:30:51.690Z,14.10
2019-03-21T09:33:39.530Z,13.90
2019-03-21T09:36:27.795Z,13.70
2019-03-21T09:39:08.342Z,13.50
2019-03-21T09:41:50.968Z,13.70
2019-03-21T09:44:52.978Z,14.60
2019-03-21T09:47:24.696Z,14.40
2019-03-21T09:52:37.535Z,14.70
2019-03-21T09:55:25.419Z,14.40
2019-03-21T09:58:05.771Z,13.90
2019-03-21T10:00:46.373Z,14.20
2019-03-21T10:03:14.878Z,14.90
2019-03-21T10:06:02.821Z,15.10
2019-03-21T10:08:43.154Z,15.00
2019-03-21T10:11:11.672Z,15.30
2019-03-21T10:17:00.806Z,15.20
2019-03-21T10:19:30.015Z,15.60
2019-03-21T10:21:58.634Z,15.10
2019-03-21T10:24:46.565Z,14.90
2019-03-21T10:27:15.035Z,15.60
2019-03-21T10:30:03.699Z,15.00
2019-03-21T10:32:44.219Z,14.90
2019-03-21T10:35:25.403Z,14.60
2019-03-21T10:37:53.883Z,14.90
2019-03-21T10:40:42.091Z,14.90
2019-03-21T10:43:30.210Z,14.60
2019-03-21T10:46:11.559Z,15.10
2019-03-21T10:48:52.527Z,15.70
2019-03-21T10:51:33.907Z,15.50
2019-03-21T10:54:14.758Z,16.00
2019-03-21T10:56:55.411Z,16.70
2019-03-21T10:59:36.281Z,16.60
2019-03-21T11:02:16.993Z,16.40
2019-03-21T11:05:20.224Z,16.40
2019-03-21T11:07:55.978Z,16.80
2019-03-21T11:10:43.849Z,16.80
2019-03-21T11:13:25.204Z,17.40
2019-03-21T11:15:53.841Z,17.20
2019-03-21T11:18:42.073Z,16.60
2019-03-21T11:21:30.575Z,16.10
2019-03-21T11:24:18.487Z,15.60
2019-03-21T11:26:59.159Z,15.50
2019-03-21T11:29:41.059Z,15.30
2019-03-21T11:32:21.576Z,15.10
2019-03-21T11:35:02.164Z,15.00
2019-03-21T11:37:42.897Z,15.30
2019-03-21T11:40:23.984Z,15.10
2019-03-21T11:43:05.814Z,15.20
2019-03-21T11:45:47.762Z,15.20
2019-03-21T11:54:33.345Z,15.50
2019-03-21T11:57:13.902Z,15.50
2019-03-21T11:59:54.719Z,15.40
2019-03-21T12:02:35.785Z,15.70
2019-03-21T12:05:16.797Z,15.70
2019-03-21T12:07:57.874Z,16.70
2019-03-21T12:10:39.156Z,16.90
2019-03-21T12:13:19.842Z,17.40
2019-03-21T12:16:00.590Z,17.60
2019-03-21T12:18:41.709Z,17.30
2019-03-21T12:21:22.909Z,16.60
2019-03-21T12:24:05.054Z,17.00
2019-03-21T12:26:46.055Z,16.10
2019-03-21T12:34:44.953Z,17.40
2019-03-21T12:37:32.925Z,18.00
2019-03-21T12:40:13.162Z,18.20
2019-03-21T12:42:53.765Z,18.00
2019-03-21T12:45:35.427Z,17.60
2019-03-21T12:48:16.282Z,16.80
2019-03-21T12:50:57.106Z,16.20
2019-03-21T12:53:38.236Z,17.20
2019-03-21T12:56:19.247Z,17.50
2019-03-21T12:59:00.211Z,16.70
2019-03-21T13:01:40.999Z,16.50
2019-03-21T13:04:21.986Z,17.40
2019-03-21T13:07:02.981Z,17.10
2019-03-21T13:09:43.831Z,17.20
2019-03-21T13:12:25.117Z,17.50
2019-03-21T13:15:05.985Z,18.00
2019-03-21T13:17:46.877Z,18.60
2019-03-21T13:20:15.928Z,18.90
2019-03-21T13:22:52.607Z,18.40
2019-03-21T13:25:33.926Z,18.50
2019-03-21T13:28:21.821Z,18.60
2019-03-21T13:31:02.266Z,18.50
2019-03-21T13:33:43.175Z,17.00
2019-03-21T13:36:23.744Z,18.00
2019-03-21T13:38:52.308Z,18.20
2019-03-21T13:44:40.385Z,18.00
2019-03-21T13:47:08.880Z,17.50
2019-03-21T13:49:56.843Z,18.50
2019-03-21T13:52:37.877Z,18.80
2019-03-21T13:55:18.682Z,18.40
2019-03-21T13:57:59.716Z,18.20
2019-03-21T14:00:41.151Z,18.80
2019-03-21T14:03:25.295Z,19.30
2019-03-21T14:06:05.311Z,19.60
2019-03-21T14:08:46.096Z,18.40
2019-03-21T14:11:26.865Z,18.40
2019-03-21T14:14:07.915Z,18.10
2019-03-21T14:16:50.859Z,18.50
2019-03-21T14:19:31.028Z,19.00
2019-03-21T14:22:12.740Z,18.70
2019-03-21T14:24:53.099Z,18.30
2019-03-21T14:27:33.747Z,18.30
2019-03-21T14:30:15.963Z,18.50
2019-03-21T14:32:56.430Z,18.90
2019-03-21T14:35:37.440Z,19.10
2019-03-21T14:38:26.378Z,19.10
2019-03-21T14:41:00.961Z,18.50
2019-03-21T14:43:41.595Z,17.50
2019-03-21T14:46:22.405Z,17.60
2019-03-21T14:49:04.569Z,17.80
2019-03-21T14:51:45.352Z,17.60
2019-03-21T14:54:25.927Z,17.50
2019-03-21T14:57:06.399Z,17.00
2019-03-21T14:59:47.968Z,17.20
2019-03-21T15:02:16.977Z,16.50
2019-03-21T15:08:00.535Z,16.40
2019-03-21T15:10:48.504Z,16.30
2019-03-21T15:13:30.659Z,16.20
2019-03-21T15:16:11.409Z,16.60
2019-03-21T15:18:52.212Z,16.60
2019-03-21T15:21:32.770Z,16.10
2019-03-21T15:24:15.119Z,15.90
2019-03-21T15:26:56.688Z,15.80
2019-03-21T15:29:37.947Z,16.20
2019-03-21T15:32:18.997Z,16.10
2019-03-21T15:35:00.552Z,15.90
2019-03-21T15:37:41.711Z,15.90
2019-03-21T15:46:23.931Z,15.50
2019-03-21T15:49:05.132Z,15.40
2019-03-21T15:54:36.866Z,15.30
2019-03-21T15:57:05.342Z,15.40
2019-03-21T15:59:53.175Z,15.50
2019-03-21T16:02:41.019Z,15.40
2019-03-21T16:05:09.718Z,15.00
2019-03-21T16:07:57.535Z,14.80
2019-03-21T16:10:45.376Z,14.80
2019-03-21T16:16:22.013Z,15.00
2019-03-21T16:19:03.771Z,14.90
2019-03-21T16:21:44.171Z,14.80
2019-03-21T16:24:24.891Z,14.50
2019-03-21T16:27:05.752Z,14.40
2019-03-21T16:29:46.353Z,14.10
2019-03-21T16:32:27.211Z,14.30
2019-03-21T16:35:08.926Z,14.30
2019-03-21T16:37:55.115Z,14.50
2019-03-21T16:40:23.673Z,14.40
2019-03-21T16:43:11.543Z,14.30
2019-03-21T16:45:55.841Z,14.30
2019-03-21T16:48:24.379Z,14.10
2019-03-21T16:51:12.215Z,14.10
2019-03-21T16:54:00.170Z,14.30
2019-03-21T16:56:41.080Z,14.00
2019-03-21T16:59:22.961Z,13.90
2019-03-21T17:01:51.446Z,13.70
2019-03-21T17:04:39.322Z,13.80
2019-03-21T17:07:20.153Z,13.70
2019-03-21T17:10:01.033Z,13.70
2019-03-21T17:12:46.564Z,13.40
2019-03-21T17:15:31.457Z,13.40
2019-03-21T17:18:12.227Z,13.30
2019-03-21T17:20:53.003Z,13.20
2019-03-21T17:23:33.531Z,13.20
2019-03-21T17:26:02.791Z,13.20
2019-03-21T17:28:50.917Z,13.30
2019-03-21T17:31:38.736Z,13.00
2019-03-21T17:34:19.064Z,13.00
2019-03-21T17:40:13.235Z,13.10
2019-03-21T17:42:41.774Z,13.20
2019-03-21T17:45:31.473Z,13.30
2019-03-21T17:48:19.295Z,13.20
2019-03-21T17:51:00.387Z,12.90
2019-03-21T17:53:40.897Z,13.10
2019-03-21T17:59:26.196Z,13.00
2019-03-21T18:02:08.805Z,12.80
2019-03-21T18:04:50.029Z,12.60
2019-03-21T18:07:32.923Z,12.40
2019-03-21T18:10:13.328Z,12.30
2019-03-21T18:15:39.237Z,12.40
2019-03-21T18:18:19.944Z,12.20
2019-03-21T18:21:00.507Z,12.10
2019-03-21T18:23:41.515Z,12.10
2019-03-21T18:26:22.521Z,12.10
2019-03-21T18:28:51.014Z,12.10
2019-03-21T18:31:39.233Z,12.20
2019-03-21T18:34:07.799Z,12.20
2019-03-21T18:36:49.822Z,12.30
2019-03-21T18:42:19.030Z,12.10
2019-03-21T18:48:18.023Z,11.90
2019-03-21T18:50:59.206Z,12.10
2019-03-21T18:53:42.850Z,11.90
2019-03-21T18:56:23.149Z,11.90
2019-03-21T18:59:04.800Z,11.90
2019-03-21T19:01:58.041Z,11.80
2019-03-21T19:04:28.599Z,11.80
2019-03-21T19:07:09.700Z,11.70
2019-03-21T19:09:57.503Z,11.80
2019-03-21T19:12:26.167Z,11.70
2019-03-21T19:18:00.116Z,11.60
2019-03-21T19:20:28.595Z,11.70
2019-03-21T19:26:24.597Z,11.70
2019-03-21T19:29:11.434Z,11.70
2019-03-21T19:31:52.390Z,11.80
2019-03-21T19:34:34.419Z,11.70
2019-03-21T19:37:02.974Z,11.70
2019-03-21T19:39:51.023Z,11.70
2019-03-21T19:42:32.462Z,11.80
2019-03-21T19:45:13.713Z,11.80
2019-03-21T19:47:42.255Z,11.90
2019-03-21T19:50:42.596Z,11.90
2019-03-21T19:53:12.334Z,11.80
2019-03-21T19:55:52.672Z,11.80
2019-03-21T19:58:33.490Z,11.70
2019-03-21T20:03:58.597Z,11.80
2019-03-21T20:06:39.609Z,11.80
2019-03-21T20:09:20.832Z,11.90
2019-03-21T20:14:50.180Z,11.80
2019-03-21T20:17:31.044Z,11.60
2019-03-21T20:20:13.288Z,11.60
2019-03-21T20:22:54.052Z,11.40
2019-03-21T20:25:42.915Z,11.60
2019-03-21T20:30:59.821Z,11.50
2019-03-21T20:33:40.597Z,11.40
2019-03-21T20:36:23.896Z,11.50
2019-03-21T20:39:04.980Z,11.60
2019-03-21T20:41:46.636Z,11.50
2019-03-21T20:47:29.808Z,11.60
2019-03-21T20:50:18.097Z,11.40
2019-03-21T20:52:59.567Z,11.50
2019-03-21T20:55:28.026Z,11.40
2019-03-21T20:57:56.557Z,11.30
2019-03-21T21:00:44.398Z,11.40
2019-03-21T21:03:32.244Z,11.30
2019-03-21T21:06:12.870Z,11.20
2019-03-21T21:08:53.494Z,11.20
2019-03-21T21:11:36.598Z,11.20
2019-03-21T21:14:16.832Z,11.30
2019-03-21T21:16:58.585Z,11.10
2019-03-21T21:25:39.340Z,11.30
2019-03-21T21:28:20.404Z,11.10
2019-03-21T21:31:01.462Z,11.00
2019-03-21T21:33:42.466Z,10.80
2019-03-21T21:36:23.210Z,11.00
2019-03-21T21:38:51.704Z,10.90
2019-03-21T21:41:39.501Z,10.80
2019-03-21T21:44:20.689Z,10.90
2019-03-21T21:46:49.167Z,10.80
2019-03-21T21:49:37.720Z,10.80
2019-03-21T21:52:25.525Z,10.70
2019-03-21T21:55:06.617Z,10.70
2019-03-21T21:57:47.493Z,10.80
2019-03-21T22:00:28.431Z,10.80
2019-03-21T22:03:09.429Z,10.60
2019-03-21T22:05:51.313Z,10.60
2019-03-21T22:08:32.456Z,10.60
2019-03-21T22:11:13.300Z,10.70
2019-03-21T22:13:54.191Z,10.70
2019-03-21T22:16:35.295Z,10.50
2019-03-21T22:19:16.100Z,10.40
2019-03-21T22:21:56.960Z,10.50
2019-03-21T22:24:37.713Z,10.50
2019-03-21T22:27:18.153Z,10.50
2019-03-21T22:29:59.064Z,10.40
2019-03-21T22:32:28.122Z,10.50
2019-03-21T22:34:56.628Z,10.30
2019-03-21T22:37:25.115Z,10.40
2019-03-21T22:40:13.569Z,10.30
2019-03-21T22:42:54.301Z,10.40
2019-03-21T22:45:34.945Z,10.30
2019-03-21T22:48:15.773Z,10.20
2019-03-21T22:50:56.676Z,10.10
2019-03-21T22:53:25.215Z,10.20
2019-03-21T22:56:13.030Z,10.10
2019-03-21T22:58:53.387Z,10.10
2019-03-21T23:01:34.320Z,10.00
2019-03-21T23:04:14.871Z,10.10
2019-03-21T23:06:55.777Z,10.10
2019-03-21T23:09:36.695Z,10.00
2019-03-21T23:12:17.723Z,9.90
2019-03-21T23:14:58.310Z,9.90
2019-03-21T23:17:38.812Z,10.00
2019-03-21T23:20:19.816Z,10.00
2019-03-21T23:23:09.512Z,10.10
2019-03-21T23:25:57.325Z,10.00
2019-03-21T23:28:38.998Z,10.00
2019-03-21T23:31:20.756Z,10.00
2019-03-21T23:34:01.307Z,10.00
2019-03-21T23:36:44.777Z,10.00
2019-03-21T23:39:25.653Z,10.00
2019-03-21T23:42:07.792Z,10.00
2019-03-21T23:44:48.579Z,10.00
2019-03-21T23:47:29.587Z,10.00
2019-03-21T23:50:10.170Z,9.90
2019-03-21T23:52:51.023Z,9.90
2019-03-21T23:55:31.570Z,9.90
2019-03-21T23:58:12.362Z,9.90
